Terminal Aerodrome Forecast
Issued by NWS Greer, SC

Current Version | Previous Version | Text Only | Print | Product List | Glossary On
Versions: 1 2 3 4 5 6 7 8 9 10 11 12 13 14 15 16 17 18 19 20 21 22 23 24 25 26 27 28 29 30 31 32 33 34 35 36 37 38 39 40 41 42 43 44 45 46 47 48 49 50
000
FTUS42 KGSP 052340
TAFCLT
TAF
KCLT 052340Z 0600/0624 06004KT P6SM -RA SCT040 OVC070
     FM060200 06006KT 4SM RA SCT020 OVC050
      TEMPO 0604/0606 2SM +RA BKN008 OVC015
     FM060600 06010KT 3SM -RA OVC007
     FM061600 04005KT P6SM OVC004=

USA.gov is the U.S. government's official web portal to all federal, state and local government web resources and services.